createdAt,value
2023-03-17T00:00:25.814Z,6.95
2023-03-17T00:02:53.062Z,5.45
2023-03-17T00:05:23.832Z,6.15
2023-03-17T00:07:53.240Z,7.88
2023-03-17T00:10:25.200Z,6.55
2023-03-17T00:12:55.169Z,6.90
2023-03-17T00:15:26.958Z,7.95
2023-03-17T00:17:55.959Z,7.90
2023-03-17T00:20:29.762Z,6.78
2023-03-17T00:23:00.402Z,5.53
2023-03-17T00:25:29.650Z,7.65
2023-03-17T00:27:58.500Z,9.77
2023-03-17T00:30:28.912Z,5.90
2023-03-17T00:32:58.192Z,7.07
2023-03-17T00:35:28.612Z,6.05
2023-03-17T00:37:57.779Z,5.60
2023-03-17T00:40:31.191Z,6.35
2023-03-17T00:43:03.292Z,8.13
2023-03-17T00:45:30.693Z,8.00
2023-03-17T00:47:57.999Z,5.38
2023-03-17T00:50:28.573Z,7.32
2023-03-17T00:52:58.098Z,7.32
2023-03-17T00:55:26.813Z,7.15
2023-03-17T00:57:54.697Z,6.53
2023-03-17T01:00:28.524Z,5.85
2023-03-17T01:02:57.420Z,8.63
2023-03-17T01:05:26.249Z,6.75
2023-03-17T01:07:57.902Z,7.90
2023-03-17T01:10:28.376Z,9.10
2023-03-17T01:12:58.882Z,7.10
2023-03-17T01:15:31.648Z,6.45
2023-03-17T01:18:02.903Z,7.43
2023-03-17T01:20:34.521Z,6.05
2023-03-17T01:23:02.471Z,5.95
2023-03-17T01:25:30.254Z,7.45
2023-03-17T01:27:59.208Z,7.07
2023-03-17T01:30:29.794Z,8.32
2023-03-17T01:32:59.160Z,6.40
2023-03-17T01:35:29.548Z,5.88
2023-03-17T01:37:57.312Z,6.85
2023-03-17T01:40:32.300Z,6.28
2023-03-17T01:43:10.671Z,6.97
2023-03-17T01:46:12.395Z,6.72
2023-03-17T01:49:09.624Z,7.95
2023-03-17T01:51:44.386Z,6.75
2023-03-17T01:54:20.659Z,7.10
2023-03-17T01:56:52.105Z,7.75
2023-03-17T01:59:23.916Z,7.45
2023-03-17T02:01:54.972Z,8.32
2023-03-17T02:04:22.339Z,5.85
2023-03-17T02:06:57.865Z,6.22
2023-03-17T02:09:27.255Z,4.80
2023-03-17T02:11:55.726Z,6.32
2023-03-17T02:14:23.811Z,6.82
2023-03-17T02:16:50.979Z,7.95
2023-03-17T02:19:18.301Z,7.68
2023-03-17T02:21:53.605Z,6.30
2023-03-17T02:24:23.639Z,6.50
2023-03-17T02:26:54.049Z,5.70
2023-03-17T02:29:22.766Z,8.05
2023-03-17T02:31:50.563Z,5.63
2023-03-17T02:34:18.401Z,6.00
2023-03-17T02:36:46.407Z,6.78
2023-03-17T02:39:15.623Z,5.82
2023-03-17T02:41:43.295Z,6.43
2023-03-17T02:44:11.504Z,5.63
2023-03-17T02:46:38.554Z,6.80
2023-03-17T02:49:06.140Z,6.63
2023-03-17T02:51:33.360Z,6.25
2023-03-17T02:54:00.563Z,6.50
2023-03-17T02:56:28.158Z,6.70
2023-03-17T02:58:55.873Z,5.70
2023-03-17T03:01:23.267Z,7.47
2023-03-17T03:03:50.441Z,4.93
2023-03-17T03:06:17.758Z,8.27
2023-03-17T03:08:44.904Z,5.05
2023-03-17T03:11:12.202Z,6.00
2023-03-17T03:13:39.204Z,6.43
2023-03-17T03:16:07.084Z,5.95
2023-03-17T03:18:34.231Z,6.35
2023-03-17T03:21:01.572Z,6.55
2023-03-17T03:23:28.751Z,6.93
2023-03-17T03:25:56.054Z,5.82
2023-03-17T03:28:23.689Z,5.20
2023-03-17T03:30:50.907Z,7.57
2023-03-17T03:33:18.570Z,5.93
2023-03-17T03:35:46.001Z,5.28
2023-03-17T03:38:13.916Z,7.60
2023-03-17T03:40:41.374Z,7.25
2023-03-17T03:43:22.002Z,6.32
2023-03-17T03:45:50.878Z,5.45
2023-03-17T03:48:18.481Z,8.02
2023-03-17T03:50:46.133Z,6.97
2023-03-17T03:53:14.020Z,7.65
2023-03-17T03:55:41.862Z,6.18
2023-03-17T03:58:09.144Z,6.25
2023-03-17T04:00:36.142Z,6.38
2023-03-17T04:03:03.848Z,6.90
2023-03-17T04:05:30.946Z,6.88
2023-03-17T04:07:57.879Z,7.10
2023-03-17T04:10:25.092Z,5.65
2023-03-17T04:12:52.213Z,7.18
2023-03-17T04:15:20.524Z,7.03
2023-03-17T04:17:47.936Z,7.03
2023-03-17T04:20:16.284Z,7.35
2023-03-17T04:22:43.892Z,6.82
2023-03-17T04:25:14.284Z,7.15
2023-03-17T04:27:42.878Z,9.00
2023-03-17T04:30:13.945Z,7.25
2023-03-17T04:32:41.985Z,7.75
2023-03-17T04:35:14.136Z,6.45
2023-03-17T04:37:42.124Z,10.23
2023-03-17T04:40:10.477Z,9.15
2023-03-17T04:42:38.598Z,6.25
2023-03-17T04:45:06.979Z,6.63
2023-03-17T04:47:34.291Z,6.72
2023-03-17T04:50:01.805Z,7.55
2023-03-17T04:52:29.466Z,7.80
2023-03-17T04:54:56.612Z,6.97
2023-03-17T04:57:24.689Z,5.82
2023-03-17T04:59:52.200Z,7.15
2023-03-17T05:02:19.392Z,7.03
2023-03-17T05:04:46.761Z,6.03
2023-03-17T05:07:14.568Z,5.85
2023-03-17T05:09:42.095Z,5.30
2023-03-17T05:12:10.415Z,5.50
2023-03-17T05:14:37.950Z,6.65
2023-03-17T05:17:05.186Z,7.55
2023-03-17T05:19:32.514Z,6.97
2023-03-17T05:21:59.766Z,5.78
2023-03-17T05:24:27.232Z,6.65
2023-03-17T05:26:54.266Z,6.43
2023-03-17T05:29:21.451Z,8.95
2023-03-17T05:31:48.579Z,9.20
2023-03-17T05:34:16.104Z,6.68
2023-03-17T05:36:43.698Z,9.98
2023-03-17T05:39:13.408Z,7.97
2023-03-17T05:41:41.787Z,6.78
2023-03-17T05:44:09.456Z,9.95
2023-03-17T05:46:36.603Z,6.82
2023-03-17T05:49:03.982Z,7.30
2023-03-17T05:51:31.633Z,5.97
2023-03-17T05:53:58.786Z,11.35
2023-03-17T05:56:33.377Z,7.22
2023-03-17T05:59:01.873Z,7.82
2023-03-17T06:01:29.524Z,6.80
2023-03-17T06:03:57.202Z,10.07
2023-03-17T06:06:24.720Z,7.70
2023-03-17T06:08:52.434Z,10.13
2023-03-17T06:11:21.545Z,7.43
2023-03-17T06:13:49.433Z,7.20
2023-03-17T06:16:16.784Z,8.70
2023-03-17T06:18:45.473Z,6.97
2023-03-17T06:21:13.492Z,7.03
2023-03-17T06:23:41.024Z,11.02
2023-03-17T06:26:08.010Z,7.70
2023-03-17T06:28:35.192Z,7.68
2023-03-17T06:31:02.966Z,8.38
2023-03-17T06:33:31.242Z,6.55
2023-03-17T06:35:58.958Z,7.10
2023-03-17T06:38:26.169Z,8.50
2023-03-17T06:40:53.551Z,5.07
2023-03-17T06:43:24.661Z,6.10
2023-03-17T06:45:52.685Z,6.80
2023-03-17T06:48:19.921Z,6.30
2023-03-17T06:50:50.353Z,8.52
2023-03-17T06:53:17.926Z,8.23
2023-03-17T06:55:46.068Z,7.90
2023-03-17T06:58:13.439Z,8.60
2023-03-17T07:00:40.956Z,8.25
2023-03-17T07:03:10.011Z,5.68
2023-03-17T07:05:39.752Z,5.57
2023-03-17T07:08:08.497Z,7.25
2023-03-17T07:10:36.779Z,8.57
2023-03-17T07:13:06.104Z,6.90
2023-03-17T07:15:35.143Z,6.63
2023-03-17T07:18:03.543Z,7.10
2023-03-17T07:20:31.234Z,6.07
2023-03-17T07:22:58.722Z,5.00
2023-03-17T07:25:26.319Z,5.93
2023-03-17T07:27:53.604Z,5.68
2023-03-17T07:30:20.970Z,5.30
2023-03-17T07:32:48.786Z,4.80
2023-03-17T07:35:16.206Z,7.28
2023-03-17T07:37:43.524Z,5.00
2023-03-17T07:40:12.094Z,5.13
2023-03-17T07:42:39.259Z,5.22
2023-03-17T07:45:08.034Z,6.30
2023-03-17T07:47:35.333Z,5.20
2023-03-17T07:50:02.649Z,4.88
2023-03-17T07:52:29.884Z,5.40
2023-03-17T07:54:58.311Z,5.25
2023-03-17T07:57:25.360Z,5.75
2023-03-17T07:59:52.572Z,5.38
2023-03-17T08:02:21.264Z,6.60
2023-03-17T08:04:48.339Z,7.95
2023-03-17T08:07:15.770Z,4.50
2023-03-17T08:09:42.900Z,6.22
2023-03-17T08:12:10.959Z,7.18
2023-03-17T08:14:38.148Z,6.25
2023-03-17T08:17:06.525Z,8.98
2023-03-17T08:19:33.866Z,6.20
2023-03-17T08:22:01.528Z,5.70
2023-03-17T08:24:29.510Z,5.75
2023-03-17T08:26:58.093Z,6.43
2023-03-17T08:29:26.833Z,4.75
2023-03-17T08:31:54.099Z,5.47
2023-03-17T08:34:21.300Z,3.60
2023-03-17T08:36:48.530Z,4.70
2023-03-17T08:39:15.682Z,5.20
2023-03-17T08:41:43.440Z,5.00
2023-03-17T08:44:11.135Z,3.92
2023-03-17T08:46:38.392Z,5.38
2023-03-17T08:49:05.550Z,6.30
2023-03-17T08:51:34.916Z,4.38
2023-03-17T08:54:03.338Z,4.03
2023-03-17T08:56:30.821Z,3.72
2023-03-17T08:58:58.615Z,4.53
2023-03-17T09:01:27.538Z,4.70
2023-03-17T09:03:55.400Z,5.05
2023-03-17T09:06:23.008Z,4.53
2023-03-17T09:08:55.406Z,4.57
2023-03-17T09:11:26.352Z,3.45
2023-03-17T09:13:54.508Z,3.60
2023-03-17T09:16:24.150Z,6.80
2023-03-17T09:18:51.794Z,4.38
2023-03-17T09:21:18.943Z,3.53
2023-03-17T09:23:46.807Z,3.95
2023-03-17T09:26:14.013Z,3.17
2023-03-17T09:28:41.845Z,5.20
2023-03-17T09:31:11.645Z,3.78
2023-03-17T09:33:41.053Z,4.38
2023-03-17T09:36:11.450Z,4.85
2023-03-17T09:38:39.398Z,4.40
2023-03-17T09:41:29.092Z,4.63
2023-03-17T09:44:12.381Z,3.50
2023-03-17T09:47:04.313Z,3.95
2023-03-17T09:49:49.280Z,4.70
2023-03-17T09:52:29.046Z,4.00
2023-03-17T09:54:57.361Z,4.65
2023-03-17T09:57:39.785Z,3.35
2023-03-17T10:00:14.770Z,5.70
2023-03-17T10:02:43.383Z,7.27
2023-03-17T10:05:13.830Z,3.75
2023-03-17T10:07:56.979Z,4.13
2023-03-17T10:10:40.354Z,4.40
2023-03-17T10:13:28.812Z,4.15
2023-03-17T10:16:18.912Z,3.80
2023-03-17T10:18:57.742Z,5.00
2023-03-17T10:21:32.921Z,4.75
2023-03-17T10:24:02.146Z,5.20
2023-03-17T10:26:40.946Z,5.32
2023-03-17T10:29:23.944Z,4.43
2023-03-17T10:31:53.365Z,4.88
2023-03-17T10:34:40.095Z,4.25
2023-03-17T10:37:29.756Z,7.72
2023-03-17T10:39:57.798Z,5.18
2023-03-17T10:42:33.234Z,4.10
2023-03-17T10:47:40.154Z,4.72
2023-03-17T10:50:20.365Z,3.47
2023-03-17T10:52:52.319Z,3.38
2023-03-17T10:55:22.392Z,4.13
2023-03-17T10:58:10.116Z,4.55
2023-03-17T11:00:39.256Z,3.15
2023-03-17T11:03:24.802Z,4.15
2023-03-17T11:06:04.056Z,5.15
2023-03-17T11:08:38.419Z,3.83
2023-03-17T11:11:09.320Z,4.72
2023-03-17T11:13:36.818Z,4.90
2023-03-17T11:16:25.166Z,3.13
2023-03-17T11:18:56.604Z,6.25
2023-03-17T11:21:31.160Z,3.10
2023-03-17T11:24:24.254Z,3.30
2023-03-17T11:27:02.576Z,4.35
2023-03-17T11:29:44.896Z,3.33
2023-03-17T11:32:40.292Z,3.92
2023-03-17T11:35:24.611Z,3.25
2023-03-17T11:38:01.047Z,2.78
2023-03-17T11:40:45.633Z,3.90
2023-03-17T11:43:31.508Z,3.30
2023-03-17T11:46:34.024Z,3.15
2023-03-17T11:49:08.372Z,3.75
2023-03-17T11:52:12.512Z,4.22
2023-03-17T11:55:09.283Z,2.70
2023-03-17T11:57:54.793Z,4.00
2023-03-17T12:00:28.469Z,3.53
2023-03-17T12:03:08.920Z,3.15
2023-03-17T12:05:37.406Z,3.60
2023-03-17T12:08:37.757Z,5.95
2023-03-17T12:11:09.330Z,3.35
2023-03-17T12:13:59.688Z,3.50
2023-03-17T12:16:39.064Z,3.83
2023-03-17T12:19:19.692Z,3.55
2023-03-17T12:21:58.070Z,6.55
2023-03-17T12:24:40.059Z,5.22
2023-03-17T12:27:30.028Z,4.63
2023-03-17T12:30:15.569Z,6.00
2023-03-17T12:32:52.157Z,5.35
2023-03-17T12:35:38.844Z,4.30
2023-03-17T12:38:32.112Z,4.63
2023-03-17T12:41:24.600Z,4.68
2023-03-17T12:44:20.678Z,6.50
2023-03-17T12:46:57.486Z,4.10
2023-03-17T12:49:57.113Z,3.33
2023-03-17T12:52:44.401Z,4.07
2023-03-17T12:55:15.949Z,6.97
2023-03-17T12:57:48.007Z,3.28
2023-03-17T13:00:25.520Z,3.08
2023-03-17T13:03:19.322Z,4.63
2023-03-17T13:05:50.130Z,4.70
2023-03-17T13:08:44.181Z,3.90
2023-03-17T13:11:14.483Z,4.45
2023-03-17T13:13:54.527Z,3.60
2023-03-17T13:16:33.053Z,5.18
2023-03-17T13:19:17.456Z,4.50
2023-03-17T13:21:52.528Z,4.80
2023-03-17T13:24:23.891Z,5.93
2023-03-17T13:26:58.223Z,5.18
2023-03-17T13:29:39.329Z,5.13
2023-03-17T13:32:15.870Z,5.90
2023-03-17T13:34:50.417Z,3.35
2023-03-17T13:37:25.728Z,4.07
2023-03-17T13:40:23.960Z,5.07
2023-03-17T13:43:06.065Z,6.25
2023-03-17T13:45:33.401Z,4.60
2023-03-17T13:48:29.635Z,4.40
2023-03-17T13:51:02.389Z,4.78
2023-03-17T13:53:33.340Z,4.93
2023-03-17T13:56:17.534Z,4.88
2023-03-17T13:58:53.310Z,5.63
2023-03-17T14:01:22.697Z,3.80
2023-03-17T14:03:51.473Z,3.90
2023-03-17T14:06:21.682Z,6.07
2023-03-17T14:08:55.740Z,5.30
2023-03-17T14:11:50.902Z,4.85
2023-03-17T14:14:43.840Z,6.70
2023-03-17T14:17:24.662Z,4.53
2023-03-17T14:20:21.227Z,5.95
2023-03-17T14:25:26.496Z,7.05
2023-03-17T14:27:57.021Z,4.82
2023-03-17T14:30:33.852Z,5.38
2023-03-17T14:33:21.537Z,5.47
2023-03-17T14:35:52.850Z,5.57
2023-03-17T14:38:32.531Z,5.38
2023-03-17T14:41:16.679Z,5.18
2023-03-17T14:43:44.511Z,5.22
2023-03-17T14:46:18.652Z,5.03
2023-03-17T14:48:49.583Z,5.03
2023-03-17T14:51:19.775Z,6.72
2023-03-17T14:53:47.145Z,8.30
2023-03-17T14:56:14.366Z,6.32
2023-03-17T15:01:38.656Z,5.97
2023-03-17T15:04:12.061Z,4.57
2023-03-17T15:06:53.851Z,5.57
2023-03-17T15:09:40.665Z,5.00
2023-03-17T15:12:18.372Z,6.43
2023-03-17T15:14:47.027Z,5.43
2023-03-17T15:17:23.625Z,5.70
2023-03-17T15:19:54.202Z,5.40
2023-03-17T15:22:36.412Z,6.38
2023-03-17T15:25:15.683Z,6.20
2023-03-17T15:27:43.591Z,7.20
2023-03-17T15:30:12.960Z,9.32
2023-03-17T15:32:40.554Z,8.02
2023-03-17T15:35:12.345Z,6.38
2023-03-17T15:37:39.570Z,11.02
2023-03-17T15:40:07.544Z,6.65
2023-03-17T15:42:44.080Z,8.05
2023-03-17T15:45:19.129Z,6.63
2023-03-17T15:47:48.894Z,5.97
2023-03-17T15:50:22.290Z,6.63
2023-03-17T15:52:50.153Z,9.18
2023-03-17T15:55:28.204Z,8.80
2023-03-17T15:57:56.978Z,7.10
2023-03-17T16:00:26.671Z,8.00
2023-03-17T16:02:55.446Z,9.77
2023-03-17T16:05:26.222Z,7.38
2023-03-17T16:07:54.293Z,7.35
2023-03-17T16:10:29.904Z,8.43
2023-03-17T16:12:57.661Z,7.05
2023-03-17T16:15:28.465Z,7.10
2023-03-17T16:17:59.346Z,8.15
2023-03-17T16:20:34.112Z,7.90
2023-03-17T16:23:15.535Z,7.43
2023-03-17T16:25:44.313Z,8.40
2023-03-17T16:28:23.856Z,9.00
2023-03-17T16:30:52.836Z,6.75
2023-03-17T16:33:42.725Z,9.57
2023-03-17T16:36:15.083Z,9.63
2023-03-17T16:38:42.767Z,10.40
2023-03-17T16:41:17.936Z,6.75
2023-03-17T16:43:51.147Z,7.22
2023-03-17T16:46:20.165Z,7.50
2023-03-17T16:48:48.638Z,6.57
2023-03-17T16:51:16.773Z,7.32
2023-03-17T16:53:44.657Z,9.13
2023-03-17T16:56:25.180Z,8.38
2023-03-17T16:58:52.451Z,9.25
2023-03-17T17:01:26.284Z,10.88
2023-03-17T17:05:06.143Z,9.38
2023-03-17T17:07:35.506Z,8.02
2023-03-17T17:10:03.326Z,10.55
2023-03-17T17:12:33.133Z,8.07
2023-03-17T17:15:02.385Z,7.05
2023-03-17T17:17:40.047Z,8.70
2023-03-17T17:20:18.690Z,8.30
2023-03-17T17:22:52.226Z,9.60
2023-03-17T17:25:19.434Z,7.47
2023-03-17T17:27:47.767Z,9.45
2023-03-17T17:30:18.101Z,11.18
2023-03-17T17:32:45.904Z,8.63
2023-03-17T17:35:14.365Z,8.10
2023-03-17T17:37:41.553Z,8.90
2023-03-17T17:40:12.721Z,8.75
2023-03-17T17:42:40.530Z,8.68
2023-03-17T17:45:08.506Z,11.13
2023-03-17T17:47:36.609Z,8.32
2023-03-17T17:50:06.326Z,7.75
2023-03-17T17:52:33.743Z,10.95
2023-03-17T17:55:01.362Z,8.40
2023-03-17T17:57:30.851Z,8.60
2023-03-17T17:59:58.213Z,10.30
2023-03-17T18:02:25.168Z,9.05
2023-03-17T18:04:52.284Z,11.68
2023-03-17T18:07:19.605Z,11.48
2023-03-17T18:09:47.471Z,10.07
2023-03-17T18:12:14.510Z,16.02
2023-03-17T18:14:41.544Z,9.65
2023-03-17T18:17:08.925Z,8.63
2023-03-17T18:19:36.086Z,10.52
2023-03-17T18:22:04.474Z,11.95
2023-03-17T18:24:31.557Z,9.93
2023-03-17T18:26:58.612Z,8.57
2023-03-17T18:29:25.803Z,7.68
2023-03-17T18:31:54.584Z,8.80
2023-03-17T18:34:28.488Z,7.57
2023-03-17T18:36:57.824Z,6.50
2023-03-17T18:39:26.109Z,9.38
2023-03-17T18:41:54.055Z,9.57
2023-03-17T18:44:23.636Z,10.73
2023-03-17T18:46:51.213Z,10.40
2023-03-17T18:49:18.356Z,10.27
2023-03-17T18:51:45.411Z,10.77
2023-03-17T18:54:12.458Z,11.18
2023-03-17T18:56:41.153Z,9.88
2023-03-17T18:59:08.617Z,8.85
2023-03-17T19:01:36.769Z,8.82
2023-03-17T19:04:05.725Z,10.10
2023-03-17T19:06:34.190Z,8.85
2023-03-17T19:09:01.724Z,12.07
2023-03-17T19:11:33.543Z,11.30
2023-03-17T19:14:03.954Z,11.90
2023-03-17T19:16:31.237Z,8.77
2023-03-17T19:18:59.218Z,10.52
2023-03-17T19:21:26.718Z,9.45
2023-03-17T19:23:53.967Z,8.68
2023-03-17T19:26:21.136Z,8.63
2023-03-17T19:28:48.169Z,9.15
2023-03-17T19:31:15.241Z,8.45
2023-03-17T19:33:42.198Z,8.40
2023-03-17T19:36:13.509Z,11.43
2023-03-17T19:38:41.116Z,10.38
2023-03-17T19:41:08.265Z,7.43
2023-03-17T19:43:40.792Z,7.07
2023-03-17T19:46:10.348Z,11.27
2023-03-17T19:48:37.537Z,7.15
2023-03-17T19:51:05.299Z,11.40
2023-03-17T19:53:32.382Z,7.63
2023-03-17T19:55:59.646Z,7.68
2023-03-17T19:58:27.220Z,11.35
2023-03-17T20:00:54.784Z,10.02
2023-03-17T20:03:26.091Z,8.45
2023-03-17T20:05:53.478Z,10.75
2023-03-17T20:08:22.493Z,9.60
2023-03-17T20:10:54.526Z,7.18
2023-03-17T20:13:23.155Z,9.43
2023-03-17T20:15:51.652Z,8.73
2023-03-17T20:18:19.960Z,7.95
2023-03-17T20:20:52.392Z,7.95
2023-03-17T20:23:21.527Z,8.48
2023-03-17T20:25:49.665Z,8.55
2023-03-17T20:28:17.659Z,5.55
2023-03-17T20:30:45.994Z,10.38
2023-03-17T20:33:16.128Z,6.50
2023-03-17T20:35:46.856Z,7.53
2023-03-17T20:38:14.972Z,8.68
2023-03-17T20:40:42.789Z,8.00
2023-03-17T20:43:10.008Z,8.73
2023-03-17T20:45:38.524Z,11.98
2023-03-17T20:48:06.540Z,16.13
2023-03-17T20:50:34.784Z,11.68
2023-03-17T20:53:04.886Z,7.38
2023-03-17T20:55:33.489Z,7.85
2023-03-17T20:58:02.140Z,5.80
2023-03-17T21:00:32.691Z,8.55
2023-03-17T21:03:01.784Z,6.28
2023-03-17T21:05:29.584Z,6.90
2023-03-17T21:07:56.767Z,7.00
2023-03-17T21:10:24.045Z,6.47
2023-03-17T21:12:51.099Z,7.38
2023-03-17T21:15:18.319Z,7.72
2023-03-17T21:17:45.905Z,7.85
2023-03-17T21:20:14.061Z,8.35
2023-03-17T21:22:41.069Z,7.53
2023-03-17T21:25:09.998Z,6.90
2023-03-17T21:27:38.845Z,7.40
2023-03-17T21:30:16.201Z,8.75
2023-03-17T21:32:44.709Z,10.10
2023-03-17T21:35:13.284Z,7.70
2023-03-17T21:37:43.892Z,7.80
2023-03-17T21:40:13.723Z,10.10
2023-03-17T21:42:41.335Z,6.85
2023-03-17T21:45:09.270Z,8.70
2023-03-17T21:47:41.333Z,8.18
2023-03-17T21:50:09.193Z,7.65
2023-03-17T21:52:37.044Z,6.60
2023-03-17T21:55:05.322Z,7.32
2023-03-17T21:57:32.344Z,6.63
2023-03-17T21:59:59.513Z,7.07
2023-03-17T22:02:28.160Z,7.30
2023-03-17T22:04:55.128Z,6.93
2023-03-17T22:07:22.261Z,6.88
2023-03-17T22:09:53.182Z,7.63
2023-03-17T22:12:21.168Z,7.93
2023-03-17T22:14:48.244Z,6.72
2023-03-17T22:17:15.679Z,10.75
2023-03-17T22:19:44.076Z,6.60
2023-03-17T22:22:11.432Z,6.30
2023-03-17T22:24:38.848Z,8.43
2023-03-17T22:27:06.024Z,8.77
2023-03-17T22:29:33.065Z,6.63
2023-03-17T22:32:01.433Z,6.35
2023-03-17T22:34:28.451Z,9.35
2023-03-17T22:36:55.455Z,7.57
2023-03-17T22:39:22.445Z,7.68
2023-03-17T22:41:49.446Z,6.50
2023-03-17T22:44:16.781Z,8.68
2023-03-17T22:46:43.757Z,6.60
2023-03-17T22:49:11.366Z,6.63
2023-03-17T22:51:38.609Z,6.13
2023-03-17T22:54:05.717Z,8.50
2023-03-17T22:56:32.728Z,7.05
2023-03-17T22:58:59.717Z,9.23
2023-03-17T23:01:27.595Z,7.47
2023-03-17T23:03:55.429Z,6.60
2023-03-17T23:06:22.732Z,9.32
2023-03-17T23:08:49.760Z,7.05
2023-03-17T23:11:19.754Z,7.13
2023-03-17T23:13:47.531Z,7.18
2023-03-17T23:16:15.460Z,7.85
2023-03-17T23:18:46.085Z,8.90
2023-03-17T23:21:28.493Z,8.00
2023-03-17T23:23:55.669Z,9.85
2023-03-17T23:26:22.833Z,6.75
2023-03-17T23:28:50.626Z,8.90
2023-03-17T23:31:19.477Z,9.07
2023-03-17T23:33:47.835Z,7.68
2023-03-17T23:36:16.348Z,7.57
2023-03-17T23:38:44.293Z,8.10
2023-03-17T23:41:12.842Z,7.47
2023-03-17T23:43:40.437Z,7.38
2023-03-17T23:46:09.082Z,10.55
2023-03-17T23:48:37.764Z,8.30
2023-03-17T23:51:05.060Z,7.53
2023-03-17T23:53:32.978Z,9.13
2023-03-17T23:56:00.694Z,9.48
2023-03-17T23:58:30.690Z,9.25
